地図

経路データ

SID SEASON NUMBER BASIN SUBBASIN NAME ISO_TIME NATURE LAT LON WMO_WIND WMO_PRES WMO_AGENCY TRACK_TYPE DIST2LAND LANDFALL IFLAG USA_AGENCY USA_ATCF_ID USA_LAT USA_LON USA_RECORD USA_STATUS USA_WIND USA_PRES USA_SSHS USA_R34_NE USA_R34_SE USA_R34_SW USA_R34_NW USA_R50_NE USA_R50_SE USA_R50_SW USA_R50_NW USA_R64_NE USA_R64_SE USA_R64_SW USA_R64_NW USA_POCI USA_ROCI USA_RMW USA_EYE TOKYO_LAT TOKYO_LON TOKYO_GRADE TOKYO_WIND TOKYO_PRES TOKYO_R50_DIR TOKYO_R50_LONG TOKYO_R50_SHORT TOKYO_R30_DIR TOKYO_R30_LONG TOKYO_R30_SHORT TOKYO_LAND CMA_LAT CMA_LON CMA_CAT CMA_WIND CMA_PRES HKO_LAT HKO_LON HKO_CAT HKO_WIND HKO_PRES NEWDELHI_LAT NEWDELHI_LON NEWDELHI_GRADE NEWDELHI_WIND NEWDELHI_PRES NEWDELHI_CI NEWDELHI_DP NEWDELHI_POCI REUNION_LAT REUNION_LON REUNION_TYPE REUNION_WIND REUNION_PRES REUNION_TNUM REUNION_CI REUNION_RMW REUNION_R34_NE REUNION_R34_SE REUNION_R34_SW REUNION_R34_NW REUNION_R50_NE REUNION_R50_SE REUNION_R50_SW REUNION_R50_NW REUNION_R64_NE REUNION_R64_SE REUNION_R64_SW REUNION_R64_NW BOM_LAT BOM_LON BOM_TYPE BOM_WIND BOM_PRES BOM_TNUM BOM_CI BOM_RMW BOM_R34_NE BOM_R34_SE BOM_R34_SW BOM_R34_NW BOM_R50_NE BOM_R50_SE BOM_R50_SW BOM_R50_NW BOM_R64_NE BOM_R64_SE BOM_R64_SW BOM_R64_NW BOM_ROCI BOM_POCI BOM_EYE BOM_POS_METHOD BOM_PRES_METHOD NADI_LAT NADI_LON NADI_CAT NADI_WIND NADI_PRES WELLINGTON_LAT WELLINGTON_LON WELLINGTON_WIND WELLINGTON_PRES DS824_LAT DS824_LON DS824_STAGE DS824_WIND DS824_PRES TD9636_LAT TD9636_LON TD9636_STAGE TD9636_WIND TD9636_PRES TD9635_LAT TD9635_LON TD9635_WIND TD9635_PRES TD9635_ROCI NEUMANN_LAT NEUMANN_LON NEUMANN_CLASS NEUMANN_WIND NEUMANN_PRES MLC_LAT MLC_LON MLC_CLASS MLC_WIND MLC_PRES USA_GUST BOM_GUST BOM_GUST_PER REUNION_GUST REUNION_GUST_PER USA_SEAHGT USA_SEARAD_NE USA_SEARAD_SE USA_SEARAD_SW USA_SEARAD_NW STORM_SPEED STORM_DIR
1925242N19087 1925 44 NI BB NOT_NAMED 1925-08-30 00:00:00 TS 18.9000 87.4000 main 161 131 _________O____ -1 18.9000 87.4000 TC 30 5 312
1925242N19087 1925 44 NI BB NOT_NAMED 1925-08-30 03:00:00 TS 19.0650 87.2034 main 131 94 _________PO___ -1 19.1476 87.1051 TC 30 18.9000 87.4000 1 6 311
1925242N19087 1925 44 NI BB NOT_NAMED 1925-08-30 06:00:00 TS 19.3033 86.9097 main 94 59 _________OP___ -1 19.4000 86.8000 TC 30 19.1584 87.0743 1 8 311
1925242N19087 1925 44 NI BB NOT_NAMED 1925-08-30 09:00:00 TS 19.5528 86.6022 main 49 22 _________PP___ -1 19.6575 86.4850 TC 30 19.4131 86.7585 1 7 311
1925242N19087 1925 44 NI BB NOT_NAMED 1925-08-30 12:00:00 TS 19.7806 86.3317 main 22 0 _________OP___ -1 19.9000 86.2000 TC 30 19.6613 86.4634 1 7 313
1925242N19087 1925 44 NI BB NOT_NAMED 1925-08-30 15:00:00 TS 20.0000 86.0887 main 0 0 _________PO___ -1 20.0999 85.9774 TC 30 19.9000 86.2000 1 6 316
1925242N19087 1925 44 NI BB NOT_NAMED 1925-08-30 18:00:00 TS 20.2140 85.8883 main 0 0 _________OP___ -1 20.3000 85.8000 TC 30 20.1279 85.9765 1 6 322
1925242N19087 1925 44 NI BB NOT_NAMED 1925-08-30 21:00:00 TS 20.4461 85.7123 main 0 0 _________PP___ -1 20.5425 85.6350 TC 30 20.3498 85.7896 1 6 328
1925242N19087 1925 44 NI BB NOT_NAMED 1925-08-31 00:00:00 TS 20.6859 85.5664 main 0 0 _________OP___ -1 20.8000 85.5000 TC 30 20.5717 85.6329 1 5 333
1925242N19087 1925 44 NI BB NOT_NAMED 1925-08-31 03:00:00 TS 20.9250 85.4462 main 0 0 _________PO___ -1 21.0500 85.3924 TC 30 20.8000 85.5000 1 5 336
1925242N19087 1925 44 NI BB NOT_NAMED 1925-08-31 06:00:00 TS 21.1714 85.3391 main 0 0 _________OP___ -1 21.3000 85.3000 TC 30 21.0427 85.3782 1 5 339
1925242N19087 1925 44 NI BB NOT_NAMED 1925-08-31 09:00:00 TS 21.4212 85.2386 main 0 0 _________PP___ -1 21.5500 85.2000 TC 30 21.2924 85.2772 1 5 340
1925242N19087 1925 44 NI BB NOT_NAMED 1925-08-31 12:00:00 TS 21.6729 85.1438 main 0 0 _________OP___ -1 21.8000 85.1000 TC 30 21.5459 85.1876 1 5 341
1925242N19087 1925 44 NI BB NOT_NAMED 1925-08-31 15:00:00 TS 21.9250 85.0500 main 0 0 _________PO___ -1 22.0500 85.0000 TC 30 21.8000 85.1000 1 5 341
1925242N19087 1925 44 NI BB NOT_NAMED 1925-08-31 18:00:00 TS 22.1709 84.9539 main 0 0 _________OP___ -1 22.3000 84.9000 TC 30 22.0418 85.0079 1 5 340
1925242N19087 1925 44 NI BB NOT_NAMED 1925-08-31 21:00:00 TS 22.4137 84.8610 main 0 0 _________PP___ -1 22.5425 84.8074 TC 30 22.2849 84.9146 1 5 340
1925242N19087 1925 44 NI BB NOT_NAMED 1925-09-01 00:00:00 TS 22.6678 84.7570 main 0 0 _________OP___ -1 22.8000 84.7000 TC 30 22.5356 84.8140 1 6 338
1925242N19087 1925 44 NI BB NOT_NAMED 1925-09-01 03:00:00 TS 22.9463 84.6288 main 0 0 _________PO___ -1 23.0925 84.5575 TC 30 22.8000 84.7000 1 6 336
1925242N19087 1925 44 NI BB NOT_NAMED 1925-09-01 06:00:00 TS 23.2408 84.4762 main 0 0 _________OP___ -1 23.4000 84.4000 TC 30 23.0816 84.5524 1 7 334
1925242N19087 1925 44 NI BB NOT_NAMED 1925-09-01 09:00:00 TS 23.5388 84.3176 main 0 0 _________PP___ -1 23.7000 84.2425 TC 30 23.3776 84.3928 1 7 335
1925242N19087 1925 44 NI BB NOT_NAMED 1925-09-01 12:00:00 TS 23.8424 84.1684 main 0 0 _________OP___ -1 24.0000 84.1000 TC 30 23.6848 84.2368 1 7 338
1925242N19087 1925 44 NI BB NOT_NAMED 1925-09-01 15:00:00 TS 24.1462 84.0425 main 0 0 _________PO___ -1 24.2925 83.9849 TC 30 24.0000 84.1000 1 7 342
1925242N19087 1925 44 NI BB NOT_NAMED 1925-09-01 18:00:00 TS 24.4772 83.9416 main 0 0 _________OP___ -1 24.6000 83.9000 TC 30 24.3543 83.9832 1 7 346
1925242N19087 1925 44 NI BB NOT_NAMED 1925-09-01 21:00:00 TS 24.8450 83.8588 main 0 0 _________PP___ -1 24.9800 83.8275 TC 30 24.7099 83.8901 1 7 350
1925242N19087 1925 44 NI BB NOT_NAMED 1925-09-02 00:00:00 TS 25.1678 83.8135 main 0 0 _________OP___ -1 25.3000 83.8000 TC 30 25.0356 83.8270 1 5 356
1925242N19087 1925 44 NI BB NOT_NAMED 1925-09-02 03:00:00 TS 25.3687 83.8175 main 0 0 _________PO___ -1 25.4375 83.8350 TC 30 25.3000 83.8000 1 3 7
1925242N19087 1925 44 NI BB NOT_NAMED 1925-09-02 06:00:00 TS 25.4843 83.8528 main 0 0 _________OP___ -1 25.5000 83.9000 TC 30 25.4687 83.8057 1 2 19
1925242N19087 1925 44 NI BB NOT_NAMED 1925-09-02 09:00:00 TS 25.5875 83.8949 main 0 0 _________PP___ -1 25.6000 83.9425 TC 30 25.5749 83.8473 1 2 26
1925242N19087 1925 44 NI BB NOT_NAMED 1925-09-02 12:00:00 TS 25.6719 83.9576 main 0 0 _________OP___ -1 25.7000 84.0000 TC 30 25.6437 83.9152 1 2 40
1925242N19087 1925 44 NI BB NOT_NAMED 1925-09-02 15:00:00 TS 25.7538 84.0462 main 0 0 _________PO___ -1 25.8075 84.0925 TC 30 25.7000 84.0000 1 2 43
1925242N19087 1925 44 NI BB NOT_NAMED 1925-09-02 18:00:00 TS 25.8492 84.1367 main 0 0 _________OP___ -1 25.9000 84.2000 TC 30 25.7984 84.0734 1 2 43
1925242N19087 1925 44 NI BB NOT_NAMED 1925-09-02 21:00:00 TS 25.9262 84.2237 main 0 0 _________PP___ -1 25.9650 84.2850 TC 30 25.8874 84.1624 1 2 54
1925242N19087 1925 44 NI BB NOT_NAMED 1925-09-03 00:00:00 TS 25.9789 84.3351 main 0 0 _________OP___ -1 26.0000 84.4000 TC 30 25.9577 84.2702 1 3 72
1925242N19087 1925 44 NI BB NOT_NAMED 1925-09-03 03:00:00 TS 26.0075 84.4962 main 0 0 _________PO___ -1 26.0151 84.5925 TC 30 26.0000 84.4000 1 3 86
1925242N19087 1925 44 NI BB NOT_NAMED 1925-09-03 06:00:00 TS 26.0019 84.6809 main 0 0 _________OP___ -1 26.0000 84.8000 TC 30 26.0039 84.5617 1 3 98
1925242N19087 1925 44 NI BB NOT_NAMED 1925-09-03 09:00:00 TS 25.9651 84.8501 main 0 0 _________PP___ -1 25.9500 84.9575 TC 30 25.9802 84.7427 1 3 105
1925242N19087 1925 44 NI BB NOT_NAMED 1925-09-03 12:00:00 TS 25.9207 85.0137 main 0 0 _________OP___ -1 25.9000 85.1000 TC 30 25.9414 84.9273 1 3 102
1925242N19087 1925 44 NI BB NOT_NAMED 1925-09-03 15:00:00 TS 25.9000 85.1787 main 0 0 _________PO___ -1 25.9000 85.2574 TC 30 25.9000 85.1000 1 3 98
1925242N19087 1925 44 NI BB NOT_NAMED 1925-09-03 18:00:00 TS 25.8807 85.3137 main 0 0 _________OP___ -1 25.9000 85.4000 TC 30 25.8662 85.2490 1 2 103
1925242N19087 1925 44 NI BB NOT_NAMED 1925-09-03 21:00:00 TS 25.8490 85.4305 main 0 0 _________PP___ -1 25.8625 85.5100 TC 30 25.8399 85.3774 1 2 109
1925242N19087 1925 44 NI BB NOT_NAMED 1925-09-04 00:00:00 TS 25.8125 85.5281 main 0 0 _________OP___ -1 25.8000 85.6000 TC 30 25.8187 85.4921 1 2 107
1925242N19087 1925 44 NI BB NOT_NAMED 1925-09-04 03:00:00 NR 25.8000 85.6000 main 0 __________O___ -1 TC 25.8000 85.6000 1 1 100

IBTrACS Databaseについて

本データベースは、米国NOAAが公開する1842年以降の世界の熱帯低気圧のベストトラックデータアーカイブInternational Best Track Archive for Climate Stewardship (IBTrACS)を、ウェブで閲覧しやすい形式に変換したものです。

最終更新日:2021-11-26